sensor_id;sensor_type;location;lat;lon;timestamp;P1;durP1;ratioP1;P2;durP2;ratioP2
14396;SDS011;50653;47.810;13.022;2023-02-14T00:02:08;46.37;;;25.43;;
14396;SDS011;50653;47.810;13.022;2023-02-14T00:04:33;45.10;;;25.37;;
14396;SDS011;50653;47.810;13.022;2023-02-14T00:07:02;47.77;;;26.70;;
14396;SDS011;50653;47.810;13.022;2023-02-14T00:09:29;44.00;;;26.00;;
14396;SDS011;50653;47.810;13.022;2023-02-14T00:11:55;52.40;;;26.33;;
14396;SDS011;50653;47.810;13.022;2023-02-14T00:14:20;51.53;;;26.20;;
14396;SDS011;50653;47.810;13.022;2023-02-14T00:17:05;41.97;;;24.07;;
14396;SDS011;50653;47.810;13.022;2023-02-14T00:19:30;51.00;;;27.53;;
14396;SDS011;50653;47.810;13.022;2023-02-14T00:21:58;44.83;;;25.47;;
14396;SDS011;50653;47.810;13.022;2023-02-14T00:24:24;45.20;;;25.33;;
14396;SDS011;50653;47.810;13.022;2023-02-14T00:26:51;40.17;;;24.13;;
14396;SDS011;50653;47.810;13.022;2023-02-14T00:29:25;43.10;;;23.83;;
14396;SDS011;50653;47.810;13.022;2023-02-14T00:31:53;40.97;;;23.50;;
14396;SDS011;50653;47.810;13.022;2023-02-14T00:34:19;39.37;;;23.53;;
14396;SDS011;50653;47.810;13.022;2023-02-14T00:36:45;39.83;;;23.03;;
14396;SDS011;50653;47.810;13.022;2023-02-14T00:39:11;42.07;;;25.37;;
14396;SDS011;50653;47.810;13.022;2023-02-14T00:41:38;40.77;;;24.40;;
14396;SDS011;50653;47.810;13.022;2023-02-14T00:44:05;30.70;;;20.17;;
14396;SDS011;50653;47.810;13.022;2023-02-14T00:46:32;39.07;;;22.47;;
14396;SDS011;50653;47.810;13.022;2023-02-14T00:48:58;36.70;;;21.37;;
14396;SDS011;50653;47.810;13.022;2023-02-14T00:51:23;37.03;;;23.30;;
14396;SDS011;50653;47.810;13.022;2023-02-14T00:53:50;37.27;;;22.97;;
14396;SDS011;50653;47.810;13.022;2023-02-14T00:56:16;28.63;;;19.93;;
14396;SDS011;50653;47.810;13.022;2023-02-14T00:58:42;35.73;;;20.70;;
14396;SDS011;50653;47.810;13.022;2023-02-14T01:01:08;28.50;;;18.90;;
14396;SDS011;50653;47.810;13.022;2023-02-14T01:03:35;24.77;;;18.70;;
14396;SDS011;50653;47.810;13.022;2023-02-14T01:06:00;26.20;;;18.70;;
14396;SDS011;50653;47.810;13.022;2023-02-14T01:08:28;34.40;;;21.17;;
14396;SDS011;50653;47.810;13.022;2023-02-14T01:10:54;28.60;;;19.73;;
14396;SDS011;50653;47.810;13.022;2023-02-14T01:13:20;30.00;;;19.37;;
14396;SDS011;50653;47.810;13.022;2023-02-14T01:15:47;23.87;;;17.93;;
14396;SDS011;50653;47.810;13.022;2023-02-14T01:18:14;27.00;;;18.73;;
14396;SDS011;50653;47.810;13.022;2023-02-14T01:20:41;33.53;;;19.70;;
14396;SDS011;50653;47.810;13.022;2023-02-14T01:23:07;24.83;;;18.90;;
14396;SDS011;50653;47.810;13.022;2023-02-14T01:25:35;27.20;;;18.03;;
14396;SDS011;50653;47.810;13.022;2023-02-14T01:28:02;28.10;;;18.83;;
14396;SDS011;50653;47.810;13.022;2023-02-14T01:30:28;27.57;;;18.80;;
14396;SDS011;50653;47.810;13.022;2023-02-14T01:32:53;26.40;;;17.97;;
14396;SDS011;50653;47.810;13.022;2023-02-14T01:35:19;26.60;;;19.60;;
14396;SDS011;50653;47.810;13.022;2023-02-14T01:37:44;24.07;;;17.87;;
14396;SDS011;50653;47.810;13.022;2023-02-14T01:40:10;29.60;;;17.60;;
14396;SDS011;50653;47.810;13.022;2023-02-14T01:42:36;25.47;;;18.33;;
14396;SDS011;50653;47.810;13.022;2023-02-14T01:45:08;22.07;;;17.50;;
14396;SDS011;50653;47.810;13.022;2023-02-14T01:47:45;32.07;;;19.20;;
14396;SDS011;50653;47.810;13.022;2023-02-14T01:50:17;24.17;;;17.70;;
14396;SDS011;50653;47.810;13.022;2023-02-14T01:52:48;32.03;;;18.30;;
14396;SDS011;50653;47.810;13.022;2023-02-14T01:55:19;26.27;;;17.60;;
14396;SDS011;50653;47.810;13.022;2023-02-14T01:57:49;36.40;;;17.90;;
14396;SDS011;50653;47.810;13.022;2023-02-14T02:00:36;27.50;;;19.47;;
14396;SDS011;50653;47.810;13.022;2023-02-14T02:06:00;25.87;;;17.07;;
14396;SDS011;50653;47.810;13.022;2023-02-14T02:08:36;28.17;;;19.00;;
14396;SDS011;50653;47.810;13.022;2023-02-14T02:11:08;28.20;;;18.07;;
14396;SDS011;50653;47.810;13.022;2023-02-14T02:13:34;22.77;;;16.53;;
14396;SDS011;50653;47.810;13.022;2023-02-14T02:16:06;28.90;;;18.60;;
14396;SDS011;50653;47.810;13.022;2023-02-14T02:27:13;41.37;;;22.60;;
14396;SDS011;50653;47.810;13.022;2023-02-14T02:30:22;39.20;;;22.23;;
14396;SDS011;50653;47.810;13.022;2023-02-14T02:36:12;33.77;;;21.87;;
14396;SDS011;50653;47.810;13.022;2023-02-14T02:44:17;39.43;;;23.37;;
14396;SDS011;50653;47.810;13.022;2023-02-14T02:52:46;43.70;;;26.13;;
14396;SDS011;50653;47.810;13.022;2023-02-14T02:58:36;62.67;;;25.00;;
14396;SDS011;50653;47.810;13.022;2023-02-14T03:01:08;38.27;;;21.60;;
14396;SDS011;50653;47.810;13.022;2023-02-14T03:03:36;44.53;;;22.87;;
14396;SDS011;50653;47.810;13.022;2023-02-14T03:06:22;52.13;;;22.30;;
14396;SDS011;50653;47.810;13.022;2023-02-14T03:08:48;64.07;;;24.00;;
14396;SDS011;50653;47.810;13.022;2023-02-14T03:11:13;30.77;;;21.20;;
14396;SDS011;50653;47.810;13.022;2023-02-14T03:14:04;62.97;;;23.67;;
14396;SDS011;50653;47.810;13.022;2023-02-14T03:19:51;37.20;;;20.63;;
14396;SDS011;50653;47.810;13.022;2023-02-14T03:22:47;38.53;;;23.70;;
14396;SDS011;50653;47.810;13.022;2023-02-14T03:25:22;49.03;;;22.97;;
14396;SDS011;50653;47.810;13.022;2023-02-14T03:27:58;34.03;;;20.93;;
14396;SDS011;50653;47.810;13.022;2023-02-14T03:33:30;32.13;;;22.10;;
14396;SDS011;50653;47.810;13.022;2023-02-14T03:36:15;33.83;;;21.27;;
14396;SDS011;50653;47.810;13.022;2023-02-14T03:38:56;39.90;;;22.63;;
14396;SDS011;50653;47.810;13.022;2023-02-14T03:41:41;33.50;;;21.67;;
14396;SDS011;50653;47.810;13.022;2023-02-14T03:44:16;34.10;;;23.20;;
14396;SDS011;50653;47.810;13.022;2023-02-14T03:46:49;34.67;;;22.90;;
14396;SDS011;50653;47.810;13.022;2023-02-14T03:49:21;36.33;;;21.17;;
14396;SDS011;50653;47.810;13.022;2023-02-14T03:51:51;43.27;;;23.43;;
14396;SDS011;50653;47.810;13.022;2023-02-14T03:54:20;41.90;;;23.50;;
14396;SDS011;50653;47.810;13.022;2023-02-14T03:56:48;41.03;;;21.57;;
14396;SDS011;50653;47.810;13.022;2023-02-14T03:59:24;46.00;;;23.73;;
14396;SDS011;50653;47.810;13.022;2023-02-14T04:02:02;38.77;;;22.80;;
14396;SDS011;50653;47.810;13.022;2023-02-14T04:04:34;43.47;;;21.70;;
14396;SDS011;50653;47.810;13.022;2023-02-14T04:07:10;43.50;;;20.57;;
14396;SDS011;50653;47.810;13.022;2023-02-14T04:09:44;58.43;;;23.83;;
14396;SDS011;50653;47.810;13.022;2023-02-14T04:12:10;39.07;;;21.30;;
14396;SDS011;50653;47.810;13.022;2023-02-14T04:14:36;50.27;;;28.03;;
14396;SDS011;50653;47.810;13.022;2023-02-14T04:17:02;49.03;;;23.63;;
14396;SDS011;50653;47.810;13.022;2023-02-14T04:19:47;44.33;;;23.60;;
14396;SDS011;50653;47.810;13.022;2023-02-14T04:22:12;69.03;;;24.53;;
14396;SDS011;50653;47.810;13.022;2023-02-14T04:24:38;60.67;;;24.43;;
14396;SDS011;50653;47.810;13.022;2023-02-14T04:27:04;42.33;;;23.27;;
14396;SDS011;50653;47.810;13.022;2023-02-14T04:29:47;45.43;;;25.07;;
14396;SDS011;50653;47.810;13.022;2023-02-14T04:32:14;33.10;;;20.90;;
14396;SDS011;50653;47.810;13.022;2023-02-14T04:34:42;86.90;;;28.67;;
14396;SDS011;50653;47.810;13.022;2023-02-14T04:37:07;58.90;;;23.80;;
14396;SDS011;50653;47.810;13.022;2023-02-14T04:39:33;40.30;;;22.97;;
14396;SDS011;50653;47.810;13.022;2023-02-14T04:42:00;65.83;;;24.67;;
14396;SDS011;50653;47.810;13.022;2023-02-14T04:44:26;35.07;;;19.70;;
14396;SDS011;50653;47.810;13.022;2023-02-14T04:46:51;32.33;;;20.70;;
14396;SDS011;50653;47.810;13.022;2023-02-14T04:49:17;35.47;;;18.80;;
14396;SDS011;50653;47.810;13.022;2023-02-14T04:51:43;37.63;;;21.83;;
14396;SDS011;50653;47.810;13.022;2023-02-14T04:54:09;43.80;;;21.00;;
14396;SDS011;50653;47.810;13.022;2023-02-14T04:56:34;42.53;;;21.80;;
14396;SDS011;50653;47.810;13.022;2023-02-14T04:59:00;36.70;;;20.13;;
14396;SDS011;50653;47.810;13.022;2023-02-14T05:01:26;31.83;;;22.03;;
14396;SDS011;50653;47.810;13.022;2023-02-14T05:03:51;32.57;;;21.80;;
14396;SDS011;50653;47.810;13.022;2023-02-14T05:06:17;35.47;;;20.97;;
14396;SDS011;50653;47.810;13.022;2023-02-14T05:08:43;40.33;;;25.33;;
14396;SDS011;50653;47.810;13.022;2023-02-14T05:11:08;63.00;;;24.30;;
14396;SDS011;50653;47.810;13.022;2023-02-14T05:13:34;39.13;;;22.47;;
14396;SDS011;50653;47.810;13.022;2023-02-14T05:16:00;41.17;;;21.07;;
14396;SDS011;50653;47.810;13.022;2023-02-14T05:18:25;43.47;;;21.63;;
14396;SDS011;50653;47.810;13.022;2023-02-14T05:20:51;44.77;;;23.33;;
14396;SDS011;50653;47.810;13.022;2023-02-14T05:23:18;58.50;;;23.83;;
14396;SDS011;50653;47.810;13.022;2023-02-14T05:25:46;56.70;;;23.10;;
14396;SDS011;50653;47.810;13.022;2023-02-14T05:28:12;39.17;;;22.50;;
14396;SDS011;50653;47.810;13.022;2023-02-14T05:30:38;48.17;;;22.20;;
14396;SDS011;50653;47.810;13.022;2023-02-14T05:33:04;56.70;;;24.47;;
14396;SDS011;50653;47.810;13.022;2023-02-14T05:35:30;34.80;;;21.90;;
14396;SDS011;50653;47.810;13.022;2023-02-14T05:37:55;32.67;;;21.40;;
14396;SDS011;50653;47.810;13.022;2023-02-14T05:40:21;32.83;;;20.13;;
14396;SDS011;50653;47.810;13.022;2023-02-14T05:42:47;38.13;;;20.47;;
14396;SDS011;50653;47.810;13.022;2023-02-14T05:45:12;32.13;;;19.40;;
14396;SDS011;50653;47.810;13.022;2023-02-14T05:47:38;40.83;;;22.07;;
14396;SDS011;50653;47.810;13.022;2023-02-14T05:50:04;30.60;;;20.70;;
14396;SDS011;50653;47.810;13.022;2023-02-14T05:52:31;33.77;;;19.37;;
14396;SDS011;50653;47.810;13.022;2023-02-14T05:54:56;27.83;;;19.60;;
14396;SDS011;50653;47.810;13.022;2023-02-14T05:57:22;31.57;;;20.27;;
14396;SDS011;50653;47.810;13.022;2023-02-14T05:59:48;32.57;;;19.40;;
14396;SDS011;50653;47.810;13.022;2023-02-14T06:02:13;33.00;;;19.30;;
14396;SDS011;50653;47.810;13.022;2023-02-14T06:04:40;28.47;;;17.97;;
14396;SDS011;50653;47.810;13.022;2023-02-14T06:07:06;41.33;;;20.33;;
14396;SDS011;50653;47.810;13.022;2023-02-14T06:09:31;26.03;;;19.10;;
14396;SDS011;50653;47.810;13.022;2023-02-14T06:11:57;49.33;;;19.63;;
14396;SDS011;50653;47.810;13.022;2023-02-14T06:14:23;71.13;;;20.80;;
14396;SDS011;50653;47.810;13.022;2023-02-14T06:16:48;86.87;;;22.00;;
14396;SDS011;50653;47.810;13.022;2023-02-14T06:19:14;84.20;;;21.07;;
14396;SDS011;50653;47.810;13.022;2023-02-14T06:21:40;60.80;;;20.17;;
14396;SDS011;50653;47.810;13.022;2023-02-14T06:24:06;27.60;;;17.60;;
14396;SDS011;50653;47.810;13.022;2023-02-14T06:26:31;29.57;;;18.47;;
14396;SDS011;50653;47.810;13.022;2023-02-14T06:29:00;40.17;;;20.00;;
14396;SDS011;50653;47.810;13.022;2023-02-14T06:31:26;28.03;;;18.10;;
14396;SDS011;50653;47.810;13.022;2023-02-14T06:33:52;27.17;;;16.90;;
14396;SDS011;50653;47.810;13.022;2023-02-14T06:36:18;31.27;;;17.57;;
14396;SDS011;50653;47.810;13.022;2023-02-14T06:38:45;28.60;;;17.90;;
14396;SDS011;50653;47.810;13.022;2023-02-14T06:41:12;34.60;;;19.30;;
14396;SDS011;50653;47.810;13.022;2023-02-14T06:43:41;31.43;;;20.00;;
14396;SDS011;50653;47.810;13.022;2023-02-14T06:46:08;42.93;;;19.60;;
14396;SDS011;50653;47.810;13.022;2023-02-14T06:48:34;36.60;;;21.63;;
14396;SDS011;50653;47.810;13.022;2023-02-14T06:50:59;38.87;;;22.57;;
14396;SDS011;50653;47.810;13.022;2023-02-14T06:53:25;45.87;;;21.43;;
14396;SDS011;50653;47.810;13.022;2023-02-14T06:55:51;40.40;;;18.60;;
14396;SDS011;50653;47.810;13.022;2023-02-14T06:58:17;30.17;;;17.93;;
14396;SDS011;50653;47.810;13.022;2023-02-14T07:00:43;28.50;;;18.30;;
14396;SDS011;50653;47.810;13.022;2023-02-14T07:03:08;27.90;;;18.57;;
14396;SDS011;50653;47.810;13.022;2023-02-14T07:05:34;35.00;;;20.87;;
14396;SDS011;50653;47.810;13.022;2023-02-14T07:08:00;36.15;;;22.60;;
14396;SDS011;50653;47.810;13.022;2023-02-14T07:10:26;40.22;;;24.27;;
14396;SDS011;50653;47.810;13.022;2023-02-14T07:12:52;30.00;;;22.98;;
14396;SDS011;50653;47.810;13.022;2023-02-14T07:15:17;34.15;;;23.45;;
14396;SDS011;50653;47.810;13.022;2023-02-14T07:17:43;29.35;;;21.30;;
14396;SDS011;50653;47.810;13.022;2023-02-14T07:20:09;31.52;;;21.38;;
14396;SDS011;50653;47.810;13.022;2023-02-14T07:22:36;26.95;;;20.58;;
14396;SDS011;50653;47.810;13.022;2023-02-14T07:25:03;28.70;;;22.65;;
14396;SDS011;50653;47.810;13.022;2023-02-14T07:27:30;25.52;;;20.70;;
14396;SDS011;50653;47.810;13.022;2023-02-14T07:29:56;32.20;;;20.63;;
14396;SDS011;50653;47.810;13.022;2023-02-14T07:32:22;26.83;;;21.25;;
14396;SDS011;50653;47.810;13.022;2023-02-14T07:34:48;27.60;;;21.10;;
14396;SDS011;50653;47.810;13.022;2023-02-14T07:37:14;27.88;;;20.30;;
14396;SDS011;50653;47.810;13.022;2023-02-14T07:39:43;29.77;;;22.60;;
14396;SDS011;50653;47.810;13.022;2023-02-14T07:42:09;26.38;;;20.05;;
14396;SDS011;50653;47.810;13.022;2023-02-14T07:44:36;26.33;;;20.60;;
14396;SDS011;50653;47.810;13.022;2023-02-14T07:47:03;40.33;;;25.30;;
14396;SDS011;50653;47.810;13.022;2023-02-14T07:49:29;38.47;;;24.10;;
14396;SDS011;50653;47.810;13.022;2023-02-14T07:51:55;30.07;;;22.80;;
14396;SDS011;50653;47.810;13.022;2023-02-14T07:54:21;36.43;;;25.87;;
14396;SDS011;50653;47.810;13.022;2023-02-14T07:56:46;35.73;;;24.97;;
14396;SDS011;50653;47.810;13.022;2023-02-14T07:59:12;31.73;;;23.60;;
14396;SDS011;50653;47.810;13.022;2023-02-14T08:01:37;29.03;;;22.90;;
14396;SDS011;50653;47.810;13.022;2023-02-14T08:04:03;32.57;;;23.70;;
14396;SDS011;50653;47.810;13.022;2023-02-14T08:06:29;36.17;;;24.37;;
14396;SDS011;50653;47.810;13.022;2023-02-14T08:08:54;32.40;;;22.40;;
14396;SDS011;50653;47.810;13.022;2023-02-14T08:11:20;35.57;;;24.20;;
14396;SDS011;50653;47.810;13.022;2023-02-14T08:14:04;33.42;;;23.63;;
14396;SDS011;50653;47.810;13.022;2023-02-14T08:16:31;36.17;;;24.70;;
14396;SDS011;50653;47.810;13.022;2023-02-14T08:18:58;31.02;;;23.38;;
14396;SDS011;50653;47.810;13.022;2023-02-14T08:21:25;34.78;;;22.30;;
14396;SDS011;50653;47.810;13.022;2023-02-14T08:23:50;32.13;;;22.83;;
14396;SDS011;50653;47.810;13.022;2023-02-14T08:26:16;28.53;;;23.20;;
14396;SDS011;50653;47.810;13.022;2023-02-14T08:28:42;30.45;;;21.33;;
14396;SDS011;50653;47.810;13.022;2023-02-14T08:31:08;27.27;;;21.40;;
14396;SDS011;50653;47.810;13.022;2023-02-14T08:33:34;29.52;;;22.00;;
14396;SDS011;50653;47.810;13.022;2023-02-14T08:36:00;28.30;;;22.10;;
14396;SDS011;50653;47.810;13.022;2023-02-14T08:38:26;30.63;;;22.20;;
14396;SDS011;50653;47.810;13.022;2023-02-14T08:40:53;28.17;;;20.90;;
14396;SDS011;50653;47.810;13.022;2023-02-14T08:43:23;30.55;;;22.70;;
14396;SDS011;50653;47.810;13.022;2023-02-14T08:45:51;33.65;;;24.00;;
14396;SDS011;50653;47.810;13.022;2023-02-14T08:48:17;34.72;;;23.67;;
14396;SDS011;50653;47.810;13.022;2023-02-14T08:50:43;32.60;;;22.07;;
14396;SDS011;50653;47.810;13.022;2023-02-14T08:53:10;29.33;;;21.00;;
14396;SDS011;50653;47.810;13.022;2023-02-14T08:55:37;29.40;;;22.27;;
14396;SDS011;50653;47.810;13.022;2023-02-14T08:58:03;42.60;;;25.50;;
14396;SDS011;50653;47.810;13.022;2023-02-14T09:00:30;36.60;;;24.33;;
14396;SDS011;50653;47.810;13.022;2023-02-14T09:02:56;32.47;;;23.10;;
14396;SDS011;50653;47.810;13.022;2023-02-14T09:05:22;34.53;;;21.80;;
14396;SDS011;50653;47.810;13.022;2023-02-14T09:07:48;31.90;;;23.77;;
14396;SDS011;50653;47.810;13.022;2023-02-14T09:10:14;34.80;;;24.50;;
14396;SDS011;50653;47.810;13.022;2023-02-14T09:12:42;39.17;;;25.08;;
14396;SDS011;50653;47.810;13.022;2023-02-14T09:15:08;36.72;;;24.08;;
14396;SDS011;50653;47.810;13.022;2023-02-14T09:17:35;37.10;;;27.08;;
14396;SDS011;50653;47.810;13.022;2023-02-14T09:20:02;39.05;;;24.80;;
14396;SDS011;50653;47.810;13.022;2023-02-14T09:22:31;39.42;;;25.15;;
14396;SDS011;50653;47.810;13.022;2023-02-14T09:24:58;39.33;;;26.87;;
14396;SDS011;50653;47.810;13.022;2023-02-14T09:27:24;42.45;;;24.85;;
14396;SDS011;50653;47.810;13.022;2023-02-14T09:29:50;36.08;;;26.63;;
14396;SDS011;50653;47.810;13.022;2023-02-14T09:32:16;35.87;;;24.23;;
14396;SDS011;50653;47.810;13.022;2023-02-14T09:34:41;42.17;;;27.07;;
14396;SDS011;50653;47.810;13.022;2023-02-14T09:37:25;40.10;;;26.35;;
14396;SDS011;50653;47.810;13.022;2023-02-14T09:40:13;39.00;;;26.20;;
14396;SDS011;50653;47.810;13.022;2023-02-14T09:45:19;44.83;;;28.77;;
14396;SDS011;50653;47.810;13.022;2023-02-14T09:47:52;45.33;;;30.67;;
14396;SDS011;50653;47.810;13.022;2023-02-14T09:52:54;46.40;;;27.98;;
14396;SDS011;50653;47.810;13.022;2023-02-14T09:55:23;52.00;;;34.25;;
14396;SDS011;50653;47.810;13.022;2023-02-14T10:00:33;58.08;;;35.92;;
14396;SDS011;50653;47.810;13.022;2023-02-14T10:03:07;58.47;;;36.63;;
14396;SDS011;50653;47.810;13.022;2023-02-14T10:05:53;56.50;;;37.30;;
14396;SDS011;50653;47.810;13.022;2023-02-14T10:11:31;61.03;;;42.30;;
14396;SDS011;50653;47.810;13.022;2023-02-14T10:14:03;71.60;;;46.95;;
14396;SDS011;50653;47.810;13.022;2023-02-14T10:16:52;69.55;;;48.53;;
14396;SDS011;50653;47.810;13.022;2023-02-14T10:19:38;69.05;;;45.88;;
14396;SDS011;50653;47.810;13.022;2023-02-14T10:22:12;65.28;;;44.42;;
14396;SDS011;50653;47.810;13.022;2023-02-14T10:24:47;63.03;;;42.65;;
14396;SDS011;50653;47.810;13.022;2023-02-14T10:27:39;69.80;;;44.75;;
14396;SDS011;50653;47.810;13.022;2023-02-14T10:30:16;72.00;;;48.00;;
14396;SDS011;50653;47.810;13.022;2023-02-14T10:32:49;63.85;;;43.53;;
14396;SDS011;50653;47.810;13.022;2023-02-14T10:38:16;63.97;;;42.93;;
14396;SDS011;50653;47.810;13.022;2023-02-14T10:43:37;69.57;;;48.35;;
14396;SDS011;50653;47.810;13.022;2023-02-14T10:54:59;55.08;;;37.80;;
14396;SDS011;50653;47.810;13.022;2023-02-14T10:57:34;63.35;;;41.00;;
14396;SDS011;50653;47.810;13.022;2023-02-14T11:02:56;76.55;;;50.50;;
14396;SDS011;50653;47.810;13.022;2023-02-14T11:13:59;100.57;;;61.80;;
14396;SDS011;50653;47.810;13.022;2023-02-14T11:16:45;74.30;;;53.47;;
14396;SDS011;50653;47.810;13.022;2023-02-14T11:19:25;110.57;;;54.17;;
14396;SDS011;50653;47.810;13.022;2023-02-14T11:21:54;89.45;;;47.03;;
14396;SDS011;50653;47.810;13.022;2023-02-14T11:26:53;48.22;;;36.40;;
14396;SDS011;50653;47.810;13.022;2023-02-14T11:29:32;44.35;;;31.95;;
14396;SDS011;50653;47.810;13.022;2023-02-14T11:32:11;123.47;;;39.92;;
14396;SDS011;50653;47.810;13.022;2023-02-14T11:34:51;84.63;;;39.25;;
14396;SDS011;50653;47.810;13.022;2023-02-14T11:40:25;29.98;;;22.50;;
14396;SDS011;50653;47.810;13.022;2023-02-14T11:42:52;29.55;;;23.38;;
14396;SDS011;50653;47.810;13.022;2023-02-14T11:45:32;30.38;;;24.65;;
14396;SDS011;50653;47.810;13.022;2023-02-14T11:56:09;42.50;;;28.30;;
14396;SDS011;50653;47.810;13.022;2023-02-14T12:01:18;32.47;;;24.17;;
14396;SDS011;50653;47.810;13.022;2023-02-14T12:04:00;40.85;;;30.42;;
14396;SDS011;50653;47.810;13.022;2023-02-14T12:06:30;40.20;;;29.83;;
14396;SDS011;50653;47.810;13.022;2023-02-14T12:09:12;34.13;;;23.90;;
14396;SDS011;50653;47.810;13.022;2023-02-14T12:11:54;33.00;;;24.50;;
14396;SDS011;50653;47.810;13.022;2023-02-14T12:14:34;39.58;;;26.90;;
14396;SDS011;50653;47.810;13.022;2023-02-14T12:17:04;33.38;;;26.08;;
14396;SDS011;50653;47.810;13.022;2023-02-14T12:22:42;34.55;;;24.85;;
14396;SDS011;50653;47.810;13.022;2023-02-14T12:25:24;32.67;;;23.10;;
14396;SDS011;50653;47.810;13.022;2023-02-14T12:27:59;36.00;;;23.42;;
14396;SDS011;50653;47.810;13.022;2023-02-14T12:30:31;34.53;;;22.98;;
14396;SDS011;50653;47.810;13.022;2023-02-14T12:32:58;51.60;;;30.10;;
14396;SDS011;50653;47.810;13.022;2023-02-14T12:35:38;31.50;;;25.05;;
14396;SDS011;50653;47.810;13.022;2023-02-14T12:43:55;33.15;;;23.15;;
14396;SDS011;50653;47.810;13.022;2023-02-14T12:57:02;33.50;;;26.25;;
14396;SDS011;50653;47.810;13.022;2023-02-14T13:05:13;29.35;;;23.45;;
14396;SDS011;50653;47.810;13.022;2023-02-14T13:08:03;27.20;;;22.88;;
14396;SDS011;50653;47.810;13.022;2023-02-14T13:13:17;29.48;;;23.00;;
14396;SDS011;50653;47.810;13.022;2023-02-14T13:15:50;28.98;;;22.58;;
14396;SDS011;50653;47.810;13.022;2023-02-14T13:18:38;33.75;;;26.75;;
14396;SDS011;50653;47.810;13.022;2023-02-14T13:21:16;37.17;;;26.45;;
14396;SDS011;50653;47.810;13.022;2023-02-14T13:23:46;29.10;;;20.40;;
14396;SDS011;50653;47.810;13.022;2023-02-14T13:26:18;30.57;;;23.03;;
14396;SDS011;50653;47.810;13.022;2023-02-14T13:28:54;33.10;;;22.57;;
14396;SDS011;50653;47.810;13.022;2023-02-14T13:31:21;30.60;;;20.53;;
14396;SDS011;50653;47.810;13.022;2023-02-14T13:33:48;34.30;;;24.03;;
14396;SDS011;50653;47.810;13.022;2023-02-14T13:36:16;35.20;;;24.43;;
14396;SDS011;50653;47.810;13.022;2023-02-14T13:38:43;31.90;;;23.60;;
14396;SDS011;50653;47.810;13.022;2023-02-14T13:41:12;28.37;;;23.40;;
14396;SDS011;50653;47.810;13.022;2023-02-14T13:52:00;45.10;;;31.90;;
14396;SDS011;50653;47.810;13.022;2023-02-14T13:54:29;37.97;;;28.23;;
14396;SDS011;50653;47.810;13.022;2023-02-14T13:57:02;34.57;;;27.13;;
14396;SDS011;50653;47.810;13.022;2023-02-14T14:00:20;38.80;;;27.20;;
14396;SDS011;50653;47.810;13.022;2023-02-14T14:02:47;41.80;;;29.40;;
14396;SDS011;50653;47.810;13.022;2023-02-14T14:10:53;33.90;;;21.30;;
14396;SDS011;50653;47.810;13.022;2023-02-14T14:18:52;30.70;;;24.23;;
14396;SDS011;50653;47.810;13.022;2023-02-14T14:21:26;30.80;;;23.77;;
14396;SDS011;50653;47.810;13.022;2023-02-14T14:24:11;34.77;;;23.20;;
14396;SDS011;50653;47.810;13.022;2023-02-14T14:26:50;27.17;;;21.47;;
14396;SDS011;50653;47.810;13.022;2023-02-14T14:34:53;33.07;;;19.00;;
14396;SDS011;50653;47.810;13.022;2023-02-14T14:37:22;33.33;;;24.80;;
14396;SDS011;50653;47.810;13.022;2023-02-14T14:39:51;26.97;;;20.87;;
14396;SDS011;50653;47.810;13.022;2023-02-14T14:42:20;30.07;;;20.43;;
14396;SDS011;50653;47.810;13.022;2023-02-14T14:44:57;27.40;;;17.00;;
14396;SDS011;50653;47.810;13.022;2023-02-14T14:47:47;28.20;;;20.00;;
14396;SDS011;50653;47.810;13.022;2023-02-14T14:50:22;26.43;;;17.33;;
14396;SDS011;50653;47.810;13.022;2023-02-14T14:52:52;26.90;;;17.50;;
14396;SDS011;50653;47.810;13.022;2023-02-14T14:55:22;31.13;;;18.70;;
14396;SDS011;50653;47.810;13.022;2023-02-14T14:57:51;32.80;;;21.17;;
14396;SDS011;50653;47.810;13.022;2023-02-14T15:00:23;23.13;;;16.23;;
14396;SDS011;50653;47.810;13.022;2023-02-14T15:02:54;28.80;;;16.87;;
14396;SDS011;50653;47.810;13.022;2023-02-14T15:05:26;23.30;;;16.23;;
14396;SDS011;50653;47.810;13.022;2023-02-14T15:07:54;26.40;;;17.37;;
14396;SDS011;50653;47.810;13.022;2023-02-14T15:10:28;22.23;;;16.13;;
14396;SDS011;50653;47.810;13.022;2023-02-14T15:12:55;22.83;;;16.80;;
14396;SDS011;50653;47.810;13.022;2023-02-14T15:15:41;29.13;;;17.97;;
14396;SDS011;50653;47.810;13.022;2023-02-14T15:18:13;22.07;;;15.80;;
14396;SDS011;50653;47.810;13.022;2023-02-14T15:20:40;29.30;;;17.40;;
14396;SDS011;50653;47.810;13.022;2023-02-14T15:23:06;27.57;;;18.77;;
14396;SDS011;50653;47.810;13.022;2023-02-14T15:25:42;30.77;;;18.40;;
14396;SDS011;50653;47.810;13.022;2023-02-14T15:28:11;24.77;;;16.47;;
14396;SDS011;50653;47.810;13.022;2023-02-14T15:30:41;25.63;;;17.00;;
14396;SDS011;50653;47.810;13.022;2023-02-14T15:33:08;23.77;;;16.27;;
14396;SDS011;50653;47.810;13.022;2023-02-14T15:35:36;24.93;;;16.20;;
14396;SDS011;50653;47.810;13.022;2023-02-14T15:38:06;29.23;;;17.80;;
14396;SDS011;50653;47.810;13.022;2023-02-14T15:40:34;23.43;;;16.93;;
14396;SDS011;50653;47.810;13.022;2023-02-14T15:45:46;27.83;;;17.00;;
14396;SDS011;50653;47.810;13.022;2023-02-14T15:48:25;24.47;;;17.00;;
14396;SDS011;50653;47.810;13.022;2023-02-14T15:50:57;26.07;;;17.63;;
14396;SDS011;50653;47.810;13.022;2023-02-14T15:53:47;31.67;;;18.53;;
14396;SDS011;50653;47.810;13.022;2023-02-14T15:59:02;25.60;;;19.27;;
14396;SDS011;50653;47.810;13.022;2023-02-14T16:04:21;28.47;;;19.87;;
14396;SDS011;50653;47.810;13.022;2023-02-14T16:07:17;34.00;;;20.43;;
14396;SDS011;50653;47.810;13.022;2023-02-14T16:09:44;31.40;;;20.63;;
14396;SDS011;50653;47.810;13.022;2023-02-14T16:12:12;37.47;;;22.83;;
14396;SDS011;50653;47.810;13.022;2023-02-14T16:17:39;33.27;;;22.03;;
14396;SDS011;50653;47.810;13.022;2023-02-14T16:25:50;36.13;;;21.67;;
14396;SDS011;50653;47.810;13.022;2023-02-14T16:28:17;32.20;;;21.20;;
14396;SDS011;50653;47.810;13.022;2023-02-14T16:30:44;30.40;;;20.13;;
14396;SDS011;50653;47.810;13.022;2023-02-14T16:33:12;34.63;;;24.03;;
14396;SDS011;50653;47.810;13.022;2023-02-14T16:35:44;33.47;;;22.70;;
14396;SDS011;50653;47.810;13.022;2023-02-14T16:38:11;36.20;;;22.47;;
14396;SDS011;50653;47.810;13.022;2023-02-14T16:40:41;34.83;;;22.43;;
14396;SDS011;50653;47.810;13.022;2023-02-14T16:43:15;46.00;;;28.03;;
14396;SDS011;50653;47.810;13.022;2023-02-14T16:45:42;34.93;;;22.97;;
14396;SDS011;50653;47.810;13.022;2023-02-14T16:48:08;31.13;;;21.83;;
14396;SDS011;50653;47.810;13.022;2023-02-14T16:50:35;31.50;;;21.07;;
14396;SDS011;50653;47.810;13.022;2023-02-14T16:53:02;31.67;;;22.57;;
14396;SDS011;50653;47.810;13.022;2023-02-14T16:55:30;36.73;;;23.60;;
14396;SDS011;50653;47.810;13.022;2023-02-14T16:57:55;36.73;;;21.13;;
14396;SDS011;50653;47.810;13.022;2023-02-14T17:00:23;46.50;;;22.83;;
14396;SDS011;50653;47.810;13.022;2023-02-14T17:02:51;49.83;;;22.97;;
14396;SDS011;50653;47.810;13.022;2023-02-14T17:05:28;83.50;;;32.43;;